Boulder, CO (80309)

4:20 AM MDT on August 31, 2015 (GMT -0600)
Downtown Boulder | | Change Station
CLOSE
Current Station
Personal Weather Station
Location: Boulder, CO
Elevation: 5394 ft
Nearby Weather Stations

Elev 5394 ft 40.02 °N, 105.28 °W | Updated 1 minute ago

Clear
Clear
74.3 °F
Feels Like 77 °F
N
2.9
Wind Variable Wind from South
Gusts 22.6 mph

Today
High -- | Low -- °F
--% Chance of Precip.
Yesterday
High -- | Low -- °F
Precip. -- in
6:27 AM 7:34 PM
Waning Gibbous, 96% visible
Pressure 30.01 in
Visibility 10.0 miles
Clouds Clear
Heat Index 77 °F
Dew Point 45 °F
Humidity 36%
Rainfall 0.00 in
Snow Depth Not available.
UV 0 out of 12
Pollen 10.60 out of 12
Air Quality Not available.
Flu Activity Not available.
METAR KBDU 310959Z AUTO 23006KT 10SM CLR 24/07 A3001 RMK AO2
Pressure 30.01 in
Visibility 10.0 miles
Clouds Clear
Heat Index 77 °F
Dew Point 45 °F
Humidity 36%
Rainfall 0.00 in
Snow Depth Not available.
UV 0 out of 12
Pollen 10.60 out of 12
Air Quality Not available.
Flu Activity Not available.
METAR KBDU 310959Z AUTO 23006KT 10SM CLR 24/07 A3001 RMK AO2

10-Day Weather Forecast

×

Almanac

Astronomy

Aug. 31, 2015 Rise Set
Actual Time
Civil Twilight
Nautical Twilight
Astronomical Twilight
Moon
Length of Visible Light
Length of Day
Tomorrow will be .
, % of the Moon is Illuminated

Today's Extremes

State Highs State Lows

Community

WunderPhotos

Upload Photos

1,851,229 photos uploaded!

WunderBlogs® & News

Nearby

Air Quality

  Air Quality AQ Index Pollutant
Not available.

Snow Depth

Station Depth Elevation

Earthquake Activity

City Distance Mag. Time & Date
Minimum magnitude displayed is 2.5.

Coastal Water Temperatures

Place Temperature

Stations

Nearby Weather Stations

Station Location Temp. Windchill Dew Point Humidity Wind Precip. Elev Updated Type